Time;durP1;ratioP1;P1;durP2;ratioP2;P2;SDS_P1;SDS_P2;PMS_P1;PMS_P2;Temp;Humidity;BMP_temperature;BMP_pressure;BME280_temperature;BME280_humidity;BME280_pressure;Samples;Min_cycle;Max_cycle;Signal;HPM_P1;HPM_P2
2021/06/18 00:01:56;;;;;;;8.31;7.54;;;;;;;20.40;84.90;98974.41;1992087;78;25648;-70
2021/06/18 00:04:59;;;;;;;10.93;7.82;;;;;;;20.39;85.01;98977.13;1991984;81;20227;-70
2021/06/18 00:08:01;;;;;;;8.73;7.72;;;;;;;20.41;84.77;98967.41;1991454;81;20211;-70
2021/06/18 00:11:04;;;;;;;8.74;7.90;;;;;;;20.42;84.57;98971.72;1991755;81;20532;-70
2021/06/18 00:14:07;;;;;;;9.91;7.66;;;;;;;20.34;84.52;98972.09;1991277;81;20241;-71
2021/06/18 00:17:10;;;;;;;7.76;6.91;;;;;;;20.28;84.64;98968.91;1991875;78;20199;-69
2021/06/18 00:20:13;;;;;;;8.46;7.38;;;;;;;20.31;84.81;98972.28;1991691;81;20313;-70
2021/06/18 00:23:17;;;;;;;8.55;7.71;;;;;;;20.29;84.88;98978.53;1991345;81;20186;-70
2021/06/18 00:26:20;;;;;;;9.34;8.36;;;;;;;20.16;85.36;99004.66;1991553;81;20699;-71
2021/06/18 00:29:22;;;;;;;9.89;8.69;;;;;;;20.13;86.97;99016.22;1991455;81;20179;-70
2021/06/18 00:32:25;;;;;;;10.35;8.93;;;;;;;20.17;86.78;99027.47;1990496;79;20829;-70
2021/06/18 00:35:28;;;;;;;11.63;9.13;;;;;;;20.20;87.32;99027.31;1991257;81;20300;-70
2021/06/18 00:38:30;;;;;;;10.18;8.36;;;;;;;20.32;87.91;99033.78;1991105;81;20676;-70
2021/06/18 00:41:33;;;;;;;9.38;8.55;;;;;;;20.43;87.23;99042.00;1991061;81;20223;-70
2021/06/18 00:44:35;;;;;;;13.35;8.35;;;;;;;20.51;86.79;99055.69;1991562;81;20730;-70
2021/06/18 00:47:46;;;;;;;10.32;9.04;;;;;;;20.47;86.80;99057.63;1990704;78;21180;-70
2021/06/18 00:50:48;;;;;;;11.81;8.51;;;;;;;20.60;86.66;99042.00;1991660;81;20171;-70
2021/06/18 00:53:52;;;;;;;10.36;9.29;;;;;;;20.70;85.79;99050.34;1992204;81;20725;-71
2021/06/18 00:56:57;;;;;;;11.02;8.54;;;;;;;20.68;86.27;99046.91;1991934;81;20586;-70
2021/06/18 00:59:59;;;;;;;8.76;7.86;;;;;;;20.73;85.66;99047.53;1991636;81;20199;-69
2021/06/18 01:03:02;;;;;;;8.30;7.46;;;;;;;20.75;85.06;99058.84;1990872;78;24064;-70
2021/06/18 01:06:05;;;;;;;8.66;7.56;;;;;;;20.73;84.67;99048.38;1992159;81;20198;-70
2021/06/18 01:09:12;;;;;;;12.32;8.52;;;;;;;20.68;84.78;99042.50;1996166;81;20355;-70
2021/06/18 01:12:20;;;;;;;8.70;7.84;;;;;;;20.68;85.12;99049.56;1992400;81;20186;-70
2021/06/18 01:15:39;;;;;;;9.39;8.30;;;;;;;20.66;85.29;99052.28;1992363;79;22834;-70
2021/06/18 01:18:52;;;;;;;;;;;;;;;20.60;85.43;99060.47;1998579;81;20258;-70
2021/06/18 01:21:58;;;;;;;9.18;7.61;;;;;;;20.59;85.69;99055.28;1996892;81;20096;-70
2021/06/18 01:25:05;;;;;;;17.83;9.26;;;;;;;20.60;85.90;99054.34;1997109;81;20280;-69
2021/06/18 01:28:32;;;;;;;18.23;10.54;;;;;;;20.62;86.07;99063.03;1996852;81;20223;-70
2021/06/18 01:31:41;;;;;;;16.95;9.48;;;;;;;20.56;87.18;99055.44;1992831;78;21122;-71
2021/06/18 01:34:45;;;;;;;12.74;7.74;;;;;;;20.63;87.88;99051.56;1990301;81;20913;-71
2021/06/18 01:37:52;;;;;;;13.38;8.43;;;;;;;20.71;87.88;99062.59;1992180;81;20204;-72
2021/06/18 01:40:59;;;;;;;11.78;5.71;;;;;;;20.70;88.02;99059.09;1991459;81;20209;-71
2021/06/18 01:44:03;;;;;;;7.53;5.30;;;;;;;20.62;87.66;99057.75;1991724;81;21117;-71
2021/06/18 01:47:09;;;;;;;9.19;5.81;;;;;;;20.52;87.46;99060.03;1991183;78;20998;-71
2021/06/18 01:50:19;;;;;;;5.57;4.60;;;;;;;20.45;88.00;99051.56;1992214;81;20354;-71
2021/06/18 01:53:25;;;;;;;4.78;4.34;;;;;;;20.43;87.67;99063.13;1991210;81;20227;-71
2021/06/18 01:56:30;;;;;;;9.20;4.71;;;;;;;20.39;88.10;99059.75;1991819;81;20750;-71
2021/06/18 01:59:36;;;;;;;4.53;3.92;;;;;;;20.38;88.00;99059.81;1992736;81;20234;-73
2021/06/18 02:02:40;;;;;;;4.44;4.03;;;;;;;20.35;87.98;99058.19;1996339;78;20836;-72
2021/06/18 02:05:45;;;;;;;3.78;3.47;;;;;;;20.22;88.09;99060.56;1998220;81;20687;-71
2021/06/18 02:08:51;;;;;;;3.09;2.89;;;;;;;20.23;88.14;99042.97;1998846;81;20740;-71
2021/06/18 02:11:54;;;;;;;4.99;3.35;;;;;;;20.20;87.90;99048.41;1997464;81;20205;-70
2021/06/18 02:14:58;;;;;;;5.39;3.16;;;;;;;20.16;87.70;99052.97;1998800;81;21207;-71
2021/06/18 02:18:01;;;;;;;3.69;3.29;;;;;;;20.12;87.70;99046.16;1988820;78;22528;-71
2021/06/18 02:21:05;;;;;;;5.32;2.97;;;;;;;20.08;87.40;99041.94;1993334;81;20207;-71
2021/06/18 02:24:09;;;;;;;3.79;3.19;;;;;;;20.08;87.44;99043.72;1992862;81;20176;-71
2021/06/18 02:27:14;;;;;;;5.60;3.00;;;;;;;19.97;87.37;99046.03;1993050;81;20201;-72
2021/06/18 02:30:17;;;;;;;4.15;2.86;;;;;;;19.90;87.94;99042.81;1992457;81;20351;-71
2021/06/18 02:33:22;;;;;;;3.60;3.17;;;;;;;19.89;87.66;99047.25;1999347;81;20186;-71
2021/06/18 02:36:24;;;;;;;3.74;3.44;;;;;;;19.81;87.88;99049.41;1998282;81;20203;-71
2021/06/18 02:39:27;;;;;;;3.50;2.97;;;;;;;19.71;88.64;99055.16;1997908;81;20245;-71
2021/06/18 02:42:30;;;;;;;3.54;3.34;;;;;;;19.71;88.95;99052.53;1998061;81;20166;-71
2021/06/18 02:45:33;;;;;;;5.81;3.41;;;;;;;19.73;89.11;99046.25;1996795;78;21609;-71
2021/06/18 02:48:44;;;;;;;3.22;2.92;;;;;;;19.69;89.02;99049.13;1993867;81;20175;-70
2021/06/18 02:51:59;;;;;;;3.00;2.80;;;;;;;19.54;88.94;99051.53;1992907;81;20231;-71
2021/06/18 02:55:24;;;;;;;6.74;3.50;;;;;;;19.44;89.35;99044.13;1993277;81;20186;-71
2021/06/18 02:58:36;;;;;;;5.80;3.24;;;;;;;19.42;89.52;99045.97;1993067;81;20179;-71
2021/06/18 03:01:40;;;;;;;3.24;2.92;;;;;;;19.41;89.52;99045.13;1994708;79;21741;-71
2021/06/18 03:04:45;;;;;;;4.07;3.25;;;;;;;19.39;89.43;99033.81;1997002;81;20288;-72
2021/06/18 03:07:54;;;;;;;3.31;3.04;;;;;;;19.37;89.47;99037.41;1997192;81;20268;-71
2021/06/18 03:10:57;;;;;;;3.99;3.41;;;;;;;19.30;89.77;99035.06;1996326;81;20203;-71
2021/06/18 03:14:03;;;;;;;3.71;2.88;;;;;;;19.29;89.82;99032.50;1996654;81;21083;-71
2021/06/18 03:17:09;;;;;;;3.56;3.26;;;;;;;19.22;89.89;99041.59;1992203;78;20957;-71
2021/06/18 03:20:15;;;;;;;4.22;3.03;;;;;;;19.20;90.32;99048.69;1991144;81;20163;-71
2021/06/18 03:23:21;;;;;;;3.78;2.99;;;;;;;19.18;90.51;99048.75;1991059;81;20327;-71
2021/06/18 03:26:25;;;;;;;4.66;2.72;;;;;;;19.17;90.23;99051.47;1991897;81;20308;-71
2021/06/18 03:29:30;;;;;;;3.58;3.15;;;;;;;19.07;90.52;99058.09;1992235;81;20209;-71
2021/06/18 03:32:35;;;;;;;4.21;3.50;;;;;;;18.99;90.92;99058.41;1995340;78;22553;-71
2021/06/18 03:35:37;;;;;;;3.63;3.40;;;;;;;19.00;91.33;99060.97;1997041;81;20174;-71
2021/06/18 03:38:43;;;;;;;4.79;3.16;;;;;;;19.06;91.29;99065.13;1996674;81;20200;-71
2021/06/18 03:41:46;;;;;;;5.66;2.67;;;;;;;19.10;91.36;99058.78;1996279;81;20755;-71
2021/06/18 03:44:51;;;;;;;5.30;2.91;;;;;;;19.07;91.24;99045.78;1996681;81;20220;-71
2021/06/18 03:47:54;;;;;;;4.71;2.84;;;;;;;19.04;91.36;99032.75;1991200;79;20321;-71
2021/06/18 03:50:59;;;;;;;6.44;3.05;;;;;;;19.09;91.36;99032.56;1991198;81;20174;-71
2021/06/18 03:54:02;;;;;;;3.04;2.69;;;;;;;19.11;91.57;99020.16;1991560;81;21517;-71
2021/06/18 03:57:06;;;;;;;7.76;3.28;;;;;;;19.25;91.81;99018.63;1991128;81;20183;-71
2021/06/18 04:00:09;;;;;;;2.67;2.24;;;;;;;19.33;91.58;99008.59;1991646;81;20284;-71
2021/06/18 04:03:12;;;;;;;2.72;2.51;;;;;;;19.33;91.63;98998.06;1996508;79;20870;-71
2021/06/18 04:06:17;;;;;;;6.22;2.26;;;;;;;19.31;91.43;98986.75;1996736;81;20190;-71
2021/06/18 04:09:20;;;;;;;2.74;2.39;;;;;;;19.29;91.50;98969.31;1996476;81;20517;-71
2021/06/18 04:12:23;;;;;;;3.99;2.61;;;;;;;19.38;91.97;98954.84;1996758;81;20263;-71
2021/06/18 04:15:26;;;;;;;6.68;2.88;;;;;;;19.48;92.05;98956.13;1995018;78;24899;-71
2021/06/18 04:18:32;;;;;;;3.63;2.72;;;;;;;19.52;91.50;98940.09;1991962;81;20197;-75
2021/06/18 04:21:44;;;;;;;3.34;2.64;;;;;;;19.45;91.51;98933.44;1991538;81;20185;-74
2021/06/18 04:24:46;;;;;;;5.95;2.71;;;;;;;19.44;91.71;98931.75;1991966;81;20219;-74
2021/06/18 04:27:50;;;;;;;5.59;2.34;;;;;;;19.46;91.37;98939.56;1991639;81;20228;-75
2021/06/18 04:30:54;;;;;;;3.10;2.41;;;;;;;19.41;91.39;98954.72;1994431;78;21004;-74
2021/06/18 04:33:57;;;;;;;4.05;1.98;;;;;;;19.33;91.18;98955.06;1996920;81;20247;-75
2021/06/18 04:37:00;;;;;;;7.00;2.40;;;;;;;19.35;91.16;98940.06;1996699;81;20650;-74
2021/06/18 04:40:05;;;;;;;7.09;3.08;;;;;;;19.43;91.17;98937.94;1996777;81;20222;-74
2021/06/18 04:43:08;;;;;;;3.38;3.01;;;;;;;19.48;91.16;98937.69;1997447;81;20244;-73
2021/06/18 04:46:11;;;;;;;5.51;2.71;;;;;;;19.46;91.33;98936.94;1994538;79;20655;-73
2021/06/18 04:49:13;;;;;;;3.51;2.61;;;;;;;19.53;91.39;98933.91;1992203;81;20211;-74
2021/06/18 04:52:17;;;;;;;7.09;2.59;;;;;;;19.67;91.29;98927.16;1991856;81;20175;-74
2021/06/18 04:55:19;;;;;;;3.88;2.55;;;;;;;19.74;90.91;98937.31;1992162;81;20201;-74
2021/06/18 04:58:22;;;;;;;3.33;2.63;;;;;;;19.69;91.18;98946.38;1992137;81;20953;-74
2021/06/18 05:01:25;;;;;;;3.65;3.04;;;;;;;19.72;91.54;98943.59;1991667;81;20720;-74
2021/06/18 05:04:27;;;;;;;5.21;3.08;;;;;;;19.80;91.75;98947.56;1992107;81;21202;-74
2021/06/18 05:07:30;;;;;;;6.29;2.91;;;;;;;19.94;91.38;98944.25;1991829;81;20225;-75
2021/06/18 05:10:33;;;;;;;5.85;2.96;;;;;;;19.94;91.12;98946.91;1991842;81;20175;-74
2021/06/18 05:16:46;;;;;;;6.69;2.99;;;;;;;20.02;91.69;98947.34;1988498;71;21424;-74
2021/06/18 05:19:48;;;;;;;5.32;3.09;;;;;;;20.11;91.75;98946.91;1991803;81;20179;-74
2021/06/18 05:26:02;;;;;;;3.53;3.24;;;;;;;20.37;91.45;98956.13;2044765;71;20766;-75
2021/06/18 05:29:04;;;;;;;5.31;3.44;;;;;;;20.55;91.07;98964.91;1982286;82;20330;-75
2021/06/18 05:32:07;;;;;;;7.01;4.43;;;;;;;20.70;90.93;98963.25;1990144;78;22385;-75
2021/06/18 05:35:10;;;;;;;5.53;4.06;;;;;;;21.16;87.75;98969.56;2001469;81;20182;-74
2021/06/18 05:38:13;;;;;;;5.45;3.83;;;;;;;21.29;85.62;98970.63;2001794;81;20519;-75
2021/06/18 05:41:15;;;;;;;6.07;4.24;;;;;;;21.45;84.69;98964.50;2001666;81;20181;-75
2021/06/18 05:44:18;;;;;;;5.43;3.95;;;;;;;21.61;84.46;98963.56;2001442;81;20207;-75
2021/06/18 05:47:21;;;;;;;5.90;4.01;;;;;;;21.67;85.11;98973.78;1997530;78;21362;-79
2021/06/18 05:50:23;;;;;;;8.95;4.43;;;;;;;21.52;85.64;98979.91;1995027;81;20683;-75
2021/06/18 05:53:26;;;;;;;10.86;4.03;;;;;;;21.60;85.98;98983.00;1997183;81;20253;-74
2021/06/18 05:56:28;;;;;;;7.61;4.80;;;;;;;21.76;86.07;98984.78;1997377;81;20287;-75
2021/06/18 05:59:31;;;;;;;8.56;4.60;;;;;;;21.90;85.05;98987.47;1996799;81;20287;-76
2021/06/18 06:02:34;;;;;;;8.15;4.54;;;;;;;22.03;84.33;98991.13;2000927;78;25580;-75
2021/06/18 06:05:38;;;;;;;11.48;4.59;;;;;;;22.15;83.24;98989.63;2002273;81;20185;-74
2021/06/18 06:08:40;;;;;;;7.20;4.26;;;;;;;22.44;80.10;98993.19;2001963;81;20247;-74
2021/06/18 06:11:43;;;;;;;10.74;3.89;;;;;;;22.77;80.49;98987.66;2001220;81;20266;-74
2021/06/18 06:14:46;;;;;;;7.60;4.13;;;;;;;23.15;77.48;98986.19;2001246;80;20185;-74
2021/06/18 06:17:48;;;;;;;11.39;3.64;;;;;;;23.50;76.10;98980.47;1996595;78;22211;-74
2021/06/18 06:20:51;;;;;;;9.68;4.24;;;;;;;23.60;72.86;98981.63;1996783;81;20186;-74
2021/06/18 06:23:54;;;;;;;6.94;3.44;;;;;;;23.56;74.88;98992.50;1995427;81;20207;-74
2021/06/18 06:26:57;;;;;;;8.43;3.59;;;;;;;23.67;74.47;98998.81;1997014;81;20216;-74
2021/06/18 06:29:59;;;;;;;10.19;3.20;;;;;;;24.16;71.07;98995.63;1997197;81;20636;-75
2021/06/18 06:33:03;;;;;;;19.42;3.86;;;;;;;24.66;70.06;99010.00;1996289;78;20762;-75
2021/06/18 06:36:05;;;;;;;8.95;3.66;;;;;;;24.88;68.54;99012.03;1997237;81;20653;-76
2021/06/18 06:39:08;;;;;;;11.06;2.70;;;;;;;25.08;67.43;99013.31;1996977;81;20179;-74
2021/06/18 06:42:10;;;;;;;13.38;3.36;;;;;;;25.29;64.62;99011.81;1996957;81;20259;-76
2021/06/18 06:45:13;;;;;;;5.24;2.76;;;;;;;25.65;64.32;99010.97;1996736;81;20210;-78
2021/06/18 06:48:16;;;;;;;5.65;2.38;;;;;;;25.79;62.65;99010.88;2001415;78;21113;-76
2021/06/18 06:51:19;;;;;;;7.45;2.65;;;;;;;25.97;62.27;99016.66;2002017;81;20810;-76
2021/06/18 06:54:25;;;;;;;7.60;2.53;;;;;;;25.93;63.06;99023.16;2000677;81;20647;-75
2021/06/18 06:57:28;;;;;;;9.63;2.69;;;;;;;26.04;63.79;99020.56;2001411;81;20281;-76
2021/06/18 07:00:31;;;;;;;5.61;1.95;;;;;;;26.08;60.40;99027.38;1999754;79;20178;-74
2021/06/18 07:03:34;;;;;;;7.57;1.90;;;;;;;25.88;62.35;99026.19;1996063;81;20308;-74
2021/06/18 07:06:38;;;;;;;5.89;2.29;;;;;;;25.68;63.53;99029.44;1996713;81;20852;-76
2021/06/18 07:09:42;;;;;;;4.46;2.10;;;;;;;25.40;61.78;99025.19;1997607;81;20170;-77
2021/06/18 07:12:49;;;;;;;4.88;1.99;;;;;;;25.17;64.50;99026.84;2005390;81;20288;-84
2021/06/18 07:15:53;;;;;;;4.57;1.58;;;;;;;25.05;64.88;99033.00;1987646;78;32453;-75
2021/06/18 07:18:56;;;;;;;7.61;1.88;;;;;;;25.03;64.42;99034.06;1988124;81;20282;-76
2021/06/18 07:21:59;;;;;;;5.40;2.29;;;;;;;25.07;65.39;99038.19;1991066;81;20221;-73
2021/06/18 07:25:03;;;;;;;5.05;1.96;;;;;;;25.02;64.34;99035.88;1991159;81;20751;-70
2021/06/18 07:28:06;;;;;;;6.55;1.73;;;;;;;25.07;65.63;99031.06;1991033;81;20536;-71
2021/06/18 07:31:09;;;;;;;4.54;1.90;;;;;;;25.12;65.23;99033.41;1990829;79;22605;-71
2021/06/18 07:34:12;;;;;;;5.97;1.89;;;;;;;25.20;66.84;99031.06;1992585;81;20179;-71
2021/06/18 07:37:15;;;;;;;6.15;1.71;;;;;;;25.18;65.64;99031.19;1991950;81;20216;-70
2021/06/18 07:40:21;;;;;;;3.80;1.89;;;;;;;25.21;65.53;99033.63;1991488;81;20187;-70
2021/06/18 07:43:24;;;;;;;6.63;2.47;;;;;;;25.43;65.10;99040.94;1991603;81;20167;-70
2021/06/18 07:46:28;;;;;;;6.74;1.76;;;;;;;25.72;62.63;99046.88;1992313;81;20855;-70
2021/06/18 07:49:30;;;;;;;7.16;2.03;;;;;;;25.85;61.45;99034.38;1991869;81;20190;-71
2021/06/18 07:52:33;;;;;;;5.19;2.04;;;;;;;26.01;61.55;99031.41;1991550;81;20918;-71
2021/06/18 07:55:37;;;;;;;8.11;1.59;;;;;;;25.99;60.59;99028.03;1991415;81;20179;-70
2021/06/18 07:58:39;;;;;;;4.39;1.90;;;;;;;25.90;60.07;99028.72;1991908;81;20183;-70
2021/06/18 08:01:42;;;;;;;10.74;2.09;;;;;;;25.95;59.49;99033.69;1988147;78;21954;-70
2021/06/18 08:04:45;;;;;;;6.30;1.59;;;;;;;26.00;59.86;99042.19;1986749;81;20187;-71
2021/06/18 08:07:48;;;;;;;7.46;1.54;;;;;;;26.39;58.67;99049.06;1986602;81;20213;-71
2021/06/18 08:10:52;;;;;;;5.41;1.49;;;;;;;27.02;58.01;99055.81;1985901;81;20183;-71
2021/06/18 08:13:54;;;;;;;4.55;1.50;;;;;;;27.33;54.90;99065.81;1986005;81;20172;-71
2021/06/18 08:16:57;;;;;;;6.64;1.76;;;;;;;27.14;54.61;99057.53;1990895;79;24240;-71
2021/06/18 08:20:01;;;;;;;5.15;1.40;;;;;;;26.91;54.04;99061.94;1991384;81;20840;-71
2021/06/18 08:23:04;;;;;;;3.50;1.45;;;;;;;26.77;55.83;99060.34;1991625;81;20167;-71
2021/06/18 08:26:06;;;;;;;5.55;1.38;;;;;;;26.94;55.47;99064.38;1991345;81;20210;-72
2021/06/18 08:29:09;;;;;;;1.66;1.30;;;;;;;27.07;55.63;99069.63;1991361;81;20195;-72
2021/06/18 08:32:12;;;;;;;6.30;1.70;;;;;;;27.03;55.92;99065.50;1986953;78;22437;-71
2021/06/18 08:35:15;;;;;;;4.45;1.79;;;;;;;26.99;56.91;99069.34;1985861;81;20188;-71
2021/06/18 08:38:17;;;;;;;5.46;1.41;;;;;;;26.76;56.95;99074.63;1985975;81;20227;-71
2021/06/18 08:41:20;;;;;;;3.40;1.70;;;;;;;26.48;56.12;99069.69;1985922;81;20176;-72
2021/06/18 08:44:22;;;;;;;4.96;1.54;;;;;;;26.28;56.53;99068.47;1985848;81;20215;-71
2021/06/18 08:47:25;;;;;;;3.13;1.61;;;;;;;26.28;57.97;99064.97;1988592;81;20684;-71
2021/06/18 08:50:28;;;;;;;4.30;1.58;;;;;;;26.26;58.75;99057.09;1990157;81;20740;-71
2021/06/18 08:53:35;;;;;;;4.19;1.40;;;;;;;26.20;61.14;99055.72;1991634;81;20226;-71
2021/06/18 08:56:39;;;;;;;3.44;1.76;;;;;;;26.34;62.02;99061.84;1991067;81;20196;-72
2021/06/18 08:59:43;;;;;;;2.84;1.51;;;;;;;26.23;63.22;99070.63;1990939;81;20289;-72
2021/06/18 09:02:46;;;;;;;5.34;1.51;;;;;;;26.14;63.29;99069.47;1985608;78;20183;-71
2021/06/18 09:05:48;;;;;;;3.96;1.51;;;;;;;26.00;60.56;99066.13;1985775;81;20176;-72
2021/06/18 09:09:12;;;;;;;5.26;1.17;;;;;;;26.01;60.17;99067.81;1985121;81;20672;-71
2021/06/18 09:12:15;;;;;;;8.20;1.85;;;;;;;26.05;60.02;99072.84;1985210;81;20180;-71
2021/06/18 09:15:29;;;;;;;4.40;1.56;;;;;;;26.24;59.25;99072.34;1985301;79;20251;-71
2021/06/18 09:18:33;;;;;;;4.09;1.19;;;;;;;26.62;56.92;99066.00;1986160;81;20764;-71
2021/06/18 09:21:36;;;;;;;2.41;1.54;;;;;;;26.85;55.44;99062.41;1985914;81;20313;-71
2021/06/18 09:24:45;;;;;;;2.06;1.54;;;;;;;27.20;55.78;99061.53;1986981;81;20858;-71
2021/06/18 09:27:50;;;;;;;3.86;1.56;;;;;;;27.83;54.25;99062.75;1986620;81;20274;-71
2021/06/18 09:31:04;;;;;;;5.16;1.63;;;;;;;28.38;52.99;99067.16;1985212;79;21037;-71
2021/06/18 09:34:08;;;;;;;9.20;1.66;;;;;;;29.08;50.19;99063.03;1986044;81;20188;-72
2021/06/18 09:37:14;;;;;;;4.18;1.46;;;;;;;29.21;48.33;99057.47;1985254;81;20711;-72
2021/06/18 09:40:20;;;;;;;8.05;1.61;;;;;;;29.39;47.06;99056.72;1985032;81;20179;-71
2021/06/18 09:43:23;;;;;;;3.53;1.26;;;;;;;29.26;48.37;99061.44;1986002;81;20201;-71
2021/06/18 09:46:45;;;;;;;4.31;1.49;;;;;;;29.72;48.46;99060.13;1985552;79;20701;-71
2021/06/18 09:49:47;;;;;;;3.28;1.81;;;;;;;29.84;46.97;99052.84;1985830;81;20184;-71
2021/06/18 09:52:50;;;;;;;5.22;1.23;;;;;;;30.18;47.03;99054.22;1985704;81;20227;-72
2021/06/18 09:56:04;;;;;;;5.30;1.27;;;;;;;29.87;45.21;99057.91;1986078;81;20233;-72
2021/06/18 09:59:19;;;;;;;5.46;1.35;;;;;;;29.82;48.54;99055.66;1986361;81;20208;-72
2021/06/18 10:02:35;;;;;;;6.50;1.56;;;;;;;30.28;46.99;99049.69;1984575;79;20818;-72
2021/06/18 10:05:39;;;;;;;5.32;1.40;;;;;;;30.46;46.62;99055.19;1983273;81;20312;-74
2021/06/18 10:08:42;;;;;;;8.20;1.34;;;;;;;30.35;43.82;99058.88;1984958;81;20269;-73
2021/06/18 10:11:45;;;;;;;6.46;1.20;;;;;;;30.20;44.67;99057.59;1986005;81;20220;-71
2021/06/18 10:14:48;;;;;;;5.76;1.19;;;;;;;30.25;45.28;99055.34;1985627;81;20790;-74
2021/06/18 10:17:53;;;;;;;3.30;1.55;;;;;;;30.56;43.94;99053.38;1989890;78;21541;-71
2021/06/18 10:20:55;;;;;;;4.66;1.17;;;;;;;30.56;44.74;99049.84;1990048;81;20240;-72
2021/06/18 10:24:01;;;;;;;4.41;1.20;;;;;;;30.55;41.38;99056.19;1991021;81;20278;-71
2021/06/18 10:27:06;;;;;;;3.20;1.05;;;;;;;30.47;43.56;99053.34;1990180;81;20190;-71
2021/06/18 10:30:34;;;;;;;5.82;1.38;;;;;;;30.72;44.72;99052.00;1990013;81;20191;-71
2021/06/18 10:37:32;;;;;;;3.29;1.20;;;;;;;31.22;45.77;99040.03;1984908;81;20633;-71
2021/06/18 10:40:45;;;;;;;4.05;1.20;;;;;;;31.13;42.00;99043.56;1983437;81;20301;-71
2021/06/18 10:43:56;;;;;;;4.45;1.02;;;;;;;31.17;41.46;99046.78;1983873;81;20185;-71
2021/06/18 10:46:58;;;;;;;3.00;1.21;;;;;;;31.31;42.01;99048.19;1979921;78;21141;-71
2021/06/18 10:50:02;;;;;;;3.85;1.50;;;;;;;31.76;42.74;99043.78;1979402;81;21090;-71
2021/06/18 10:53:19;;;;;;;4.66;1.20;;;;;;;32.15;39.95;99044.41;1980107;81;20188;-71
2021/06/18 10:56:45;;;;;;;3.46;1.31;;;;;;;32.40;38.18;99045.50;1980589;81;20181;-71
2021/06/18 10:59:51;;;;;;;4.07;1.02;;;;;;;32.04;38.42;99043.75;1979158;81;20855;-71
2021/06/18 11:02:58;;;;;;;4.18;1.33;;;;;;;32.00;42.10;99051.28;1973403;79;21149;-71
2021/06/18 11:06:01;;;;;;;2.13;1.04;;;;;;;31.85;40.71;99052.78;1975373;82;20275;-71
2021/06/18 11:09:04;;;;;;;3.03;1.20;;;;;;;31.51;40.61;99050.66;1975984;82;20287;-71
2021/06/18 11:12:22;;;;;;;4.64;1.30;;;;;;;31.26;41.50;99051.34;1974640;82;20233;-72
2021/06/18 11:15:29;;;;;;;5.79;1.11;;;;;;;31.41;41.35;99057.88;1975141;78;21940;-71
2021/06/18 11:18:37;;;;;;;6.66;1.38;;;;;;;31.98;42.05;99053.28;1979740;81;20315;-70
2021/06/18 11:21:39;;;;;;;5.21;1.43;;;;;;;32.38;38.86;99046.66;1979830;81;20210;-70
2021/06/18 11:24:43;;;;;;;5.10;1.66;;;;;;;32.47;39.43;99038.50;1980753;81;20949;-70
2021/06/18 11:27:46;;;;;;;4.51;1.24;;;;;;;32.82;39.01;99039.47;1980675;81;20164;-70
2021/06/18 11:30:50;;;;;;;4.70;1.29;;;;;;;32.55;36.18;99034.19;1978091;79;22569;-70
2021/06/18 11:33:56;;;;;;;3.88;1.39;;;;;;;32.85;36.75;99022.19;1976236;82;21122;-70
2021/06/18 11:37:02;;;;;;;8.91;1.50;;;;;;;33.28;37.90;99014.03;1976028;82;20165;-70
2021/06/18 11:40:07;;;;;;;4.26;1.40;;;;;;;33.57;36.60;99011.00;1976199;82;20196;-69
2021/06/18 11:43:11;;;;;;;5.82;1.36;;;;;;;33.72;36.66;99011.22;1975875;82;20209;-70
2021/06/18 11:46:13;;;;;;;8.56;1.39;;;;;;;33.94;36.44;99016.06;1976536;78;20893;-69
2021/06/18 11:49:22;;;;;;;4.53;1.60;;;;;;;33.91;35.39;99008.28;1980272;81;20718;-69
2021/06/18 11:52:29;;;;;;;5.20;1.38;;;;;;;33.89;34.85;99012.13;1980103;81;20205;-69
2021/06/18 11:55:35;;;;;;;4.29;1.55;;;;;;;33.73;35.16;99020.13;1980711;81;20188;-70
2021/06/18 11:58:39;;;;;;;5.88;1.34;;;;;;;33.76;35.43;99018.00;1980346;81;20261;-70
2021/06/18 12:01:42;;;;;;;4.38;1.59;;;;;;;33.80;36.11;99022.03;1976859;79;21112;-70
2021/06/18 12:04:46;;;;;;;5.18;1.40;;;;;;;33.84;38.27;99019.84;1975464;82;20177;-69
2021/06/18 12:07:48;;;;;;;5.71;1.24;;;;;;;34.01;37.91;99023.47;1974921;82;20329;-70
2021/06/18 12:10:51;;;;;;;4.14;1.38;;;;;;;33.91;38.01;99024.44;1975103;82;20188;-69
2021/06/18 12:13:55;;;;;;;5.11;1.55;;;;;;;33.94;37.71;99015.22;1975869;82;20283;-71
2021/06/18 12:16:58;;;;;;;5.00;1.20;;;;;;;34.24;37.96;99011.88;1977015;79;51493;-71
2021/06/18 12:20:01;;;;;;;2.80;1.21;;;;;;;34.22;35.05;99013.03;1980915;82;20206;-70
2021/06/18 12:23:06;;;;;;;3.55;1.04;;;;;;;34.15;33.66;99007.50;1980761;81;20218;-70
2021/06/18 12:26:09;;;;;;;5.22;1.70;;;;;;;34.24;35.20;99001.09;1980768;82;20202;-70
2021/06/18 12:29:11;;;;;;;4.20;1.91;;;;;;;34.42;34.62;98998.25;1980599;81;20176;-70
2021/06/18 12:32:15;;;;;;;3.54;1.27;;;;;;;34.41;36.22;99001.13;1975215;79;20301;-69
2021/06/18 12:35:21;;;;;;;6.20;1.20;;;;;;;34.59;35.78;98995.56;1974921;82;20224;-69
2021/06/18 12:38:23;;;;;;;2.80;1.14;;;;;;;34.44;33.35;98990.00;1977686;82;20189;-70
2021/06/18 12:41:28;;;;;;;3.19;1.34;;;;;;;34.41;34.70;99001.13;1975628;82;20220;-73
2021/06/18 12:44:33;;;;;;;8.70;1.30;;;;;;;34.44;34.99;98995.41;1975990;82;20198;-69
2021/06/18 12:47:38;;;;;;;4.19;1.40;;;;;;;34.57;36.67;99000.28;1978768;79;24855;-70
2021/06/18 12:50:53;;;;;;;4.59;1.00;;;;;;;34.73;36.11;98992.19;1980551;81;20201;-69
2021/06/18 12:54:07;;;;;;;2.49;0.95;;;;;;;34.70;36.18;98995.22;1980333;82;20258;-70
2021/06/18 12:57:25;;;;;;;4.18;0.91;;;;;;;34.22;35.72;98988.78;1980282;82;20595;-69
2021/06/18 13:00:28;;;;;;;5.40;1.20;;;;;;;33.68;36.69;98988.31;1979592;79;20309;-70
2021/06/18 13:03:47;;;;;;;3.47;1.09;;;;;;;33.35;38.39;98990.88;1980541;81;20934;-70
2021/06/18 13:06:50;;;;;;;5.31;1.35;;;;;;;33.46;38.02;98988.91;1979665;82;20242;-70
2021/06/18 13:09:53;;;;;;;3.76;1.23;;;;;;;33.59;37.40;98975.84;1980779;82;20176;-70
2021/06/18 13:12:56;;;;;;;2.01;1.00;;;;;;;33.74;37.22;98976.03;1980270;81;20196;-70
2021/06/18 13:16:22;;;;;;;4.24;1.42;;;;;;;33.90;36.69;98976.09;1980586;78;20229;-70
2021/06/18 13:19:45;;;;;;;7.20;1.33;;;;;;;33.87;34.94;98971.91;1985764;81;20344;-70
2021/06/18 13:22:47;;;;;;;3.64;1.38;;;;;;;33.87;36.87;98973.75;1985100;81;20183;-70
2021/06/18 13:25:50;;;;;;;9.13;1.74;;;;;;;33.99;38.37;98972.44;1985017;81;20614;-70
2021/06/18 13:28:53;;;;;;;3.19;1.10;;;;;;;33.94;35.76;98980.19;1985152;81;20297;-70
2021/06/18 13:31:57;;;;;;;6.95;1.10;;;;;;;33.80;36.34;98978.94;1981812;79;20631;-70
2021/06/18 13:35:14;;;;;;;9.43;1.45;;;;;;;33.94;36.84;98974.78;1980336;82;20906;-71
2021/06/18 13:38:18;;;;;;;5.66;1.31;;;;;;;34.09;37.35;98972.25;1980046;82;20224;-72
2021/06/18 13:41:35;;;;;;;33.95;3.35;;;;;;;34.11;37.36;98968.41;1980090;82;20184;-72
2021/06/18 13:44:38;;;;;;;5.64;1.05;;;;;;;34.10;36.69;98963.16;1979832;81;20808;-72
2021/06/18 13:47:40;;;;;;;6.15;1.23;;;;;;;34.07;38.07;98969.72;1978569;79;23867;-72
2021/06/18 13:50:45;;;;;;;2.44;1.10;;;;;;;33.70;37.04;98967.44;1980181;82;20733;-72
2021/06/18 13:53:48;;;;;;;4.38;1.30;;;;;;;33.28;37.93;98959.38;1980461;81;20220;-73
2021/06/18 13:56:50;;;;;;;7.35;1.34;;;;;;;32.98;39.24;98964.25;1980240;82;20180;-74
2021/06/18 13:59:53;;;;;;;3.75;1.54;;;;;;;33.23;40.92;98965.25;1980008;82;20230;-73
2021/06/18 14:02:58;;;;;;;3.46;1.40;;;;;;;33.48;38.50;98973.44;1979211;80;21216;-71
2021/06/18 14:06:01;;;;;;;9.45;1.64;;;;;;;33.50;38.62;98969.56;1980195;82;20192;-71
2021/06/18 14:09:05;;;;;;;6.69;1.35;;;;;;;33.06;39.08;98968.84;1980492;81;20204;-75
2021/06/18 14:12:09;;;;;;;6.22;1.24;;;;;;;32.74;39.79;98980.22;1981233;81;21102;-75
2021/06/18 14:15:28;;;;;;;3.88;1.30;;;;;;;32.89;41.32;98986.75;1981045;81;20210;-72
2021/06/18 14:18:34;;;;;;;5.50;1.45;;;;;;;32.82;41.69;98984.84;1987720;81;20172;-73
2021/06/18 14:21:37;;;;;;;2.50;1.34;;;;;;;32.41;40.74;98974.59;1986179;81;20207;-73
2021/06/18 14:24:41;;;;;;;5.85;1.40;;;;;;;32.25;41.36;98974.44;1986474;81;20202;-72
2021/06/18 14:27:44;;;;;;;5.81;1.36;;;;;;;32.56;40.96;98976.75;1985839;81;20262;-72
2021/06/18 14:30:47;;;;;;;3.75;1.34;;;;;;;32.65;41.12;98973.94;1984311;79;22500;-72
2021/06/18 14:33:50;;;;;;;3.13;1.50;;;;;;;32.72;40.35;98972.31;1985490;81;20183;-73
2021/06/18 14:36:53;;;;;;;4.19;1.39;;;;;;;32.33;39.50;98968.34;1986093;81;20228;-72
2021/06/18 14:39:55;;;;;;;6.36;1.56;;;;;;;31.99;41.17;98968.16;1986361;81;20229;-72